Time;durP1;ratioP1;P1;durP2;ratioP2;P2;SDS_P1;SDS_P2;PMS_P1;PMS_P2;Temp;Humidity;BMP_temperature;BMP_pressure;BME280_temperature;BME280_humidity;BME280_pressure;Samples;Min_cycle;Max_cycle;Signal;HPM_P1;HPM_P2
2022/03/06 00:00:27;;;;;;;14.70;6.10;;;;;;;;;;5046913;28;20490;-71
2022/03/06 00:02:52;;;;;;;13.40;6.03;;;;;;;;;;5051480;28;20040;-71
2022/03/06 00:05:17;;;;;;;18.87;7.13;;;;;;;;;;5042472;28;20385;-71
2022/03/06 00:07:42;;;;;;;13.77;6.30;;;;;;;;;;5042087;28;20083;-71
2022/03/06 00:10:08;;;;;;;25.07;7.07;;;;;;;;;;5049294;28;20049;-73
2022/03/06 00:12:34;;;;;;;15.17;6.63;;;;;;;;;;5058079;28;20032;-73
2022/03/06 00:14:59;;;;;;;16.13;7.07;;;;;;;;;;5050183;28;20040;-73
2022/03/06 00:17:24;;;;;;;16.03;6.37;;;;;;;;;;5044192;28;20412;-73
2022/03/06 00:19:49;;;;;;;15.73;6.70;;;;;;;;;;5045618;28;20413;-73
2022/03/06 00:22:15;;;;;;;14.40;6.37;;;;;;;;;;5042162;28;20060;-73
2022/03/06 00:24:40;;;;;;;16.73;7.23;;;;;;;;;;5049570;28;20016;-73
2022/03/06 00:27:05;;;;;;;15.13;6.47;;;;;;;;;;5057098;28;20032;-73
2022/03/06 00:29:31;;;;;;;14.97;6.47;;;;;;;;;;5040398;28;20025;-73
2022/03/06 00:31:56;;;;;;;12.10;5.97;;;;;;;;;;5053758;28;20086;-73
2022/03/06 00:34:21;;;;;;;18.77;7.33;;;;;;;;;;5044969;28;20523;-73
2022/03/06 00:36:46;;;;;;;17.13;7.33;;;;;;;;;;5041089;28;20491;-73
2022/03/06 00:39:11;;;;;;;14.27;6.50;;;;;;;;;;5041222;28;20466;-73
2022/03/06 00:41:37;;;;;;;19.23;8.47;;;;;;;;;;5028613;28;20030;-73
2022/03/06 00:44:09;;;;;;;17.37;6.90;;;;;;;;;;5040749;28;20036;-73
2022/03/06 00:46:34;;;;;;;15.18;6.85;;;;;;;;;;5052501;28;20116;-73
2022/03/06 00:48:59;;;;;;;14.13;5.97;;;;;;;;;;5046740;28;20120;-73
2022/03/06 00:51:24;;;;;;;15.87;6.70;;;;;;;;;;5056926;28;20024;-73
2022/03/06 00:53:50;;;;;;;17.13;6.60;;;;;;;;;;5042497;28;20176;-73
2022/03/06 00:56:15;;;;;;;14.00;6.50;;;;;;;;;;5041190;28;20030;-73
2022/03/06 00:58:40;;;;;;;13.60;6.50;;;;;;;;;;5043447;28;20028;-73
2022/03/06 01:01:06;;;;;;;21.30;7.40;;;;;;;;;;5041121;28;20104;-73
2022/03/06 01:03:32;;;;;;;14.40;6.40;;;;;;;;;;5040676;28;20029;-73
2022/03/06 01:05:57;;;;;;;15.80;7.23;;;;;;;;;;5039112;28;20024;-73
2022/03/06 01:08:22;;;;;;;14.07;6.60;;;;;;;;;;5052756;28;20103;-73
2022/03/06 01:10:49;;;;;;;18.50;6.37;;;;;;;;;;5050488;28;20029;-73
2022/03/06 01:13:15;;;;;;;16.40;7.33;;;;;;;;;;5046723;28;20125;-73
2022/03/06 01:15:40;;;;;;;15.87;6.90;;;;;;;;;;5043672;28;20021;-73
2022/03/06 01:18:06;;;;;;;18.63;7.07;;;;;;;;;;5039737;28;20150;-73
2022/03/06 01:20:32;;;;;;;15.20;7.10;;;;;;;;;;5051383;28;20414;-73
2022/03/06 01:22:57;;;;;;;14.60;6.27;;;;;;;;;;5041242;28;20021;-73
2022/03/06 01:25:22;;;;;;;15.90;7.20;;;;;;;;;;5052068;28;20052;-73
2022/03/06 01:27:47;;;;;;;15.87;6.37;;;;;;;;;;5046155;28;20025;-73
2022/03/06 01:30:15;;;;;;;16.87;6.80;;;;;;;;;;5035458;28;20826;-73
2022/03/06 01:32:41;;;;;;;30.87;7.43;;;;;;;;;;5050903;28;20028;-73
2022/03/06 01:35:06;;;;;;;19.67;6.63;;;;;;;;;;5053368;28;20023;-73
2022/03/06 01:37:31;;;;;;;17.73;7.33;;;;;;;;;;5051259;28;20025;-73
2022/03/06 01:39:57;;;;;;;15.37;7.60;;;;;;;;;;5052401;28;20033;-73
2022/03/06 01:42:22;;;;;;;16.43;7.13;;;;;;;;;;5042956;28;20024;-73
2022/03/06 01:44:52;;;;;;;16.00;7.10;;;;;;;;;;5045006;28;20469;-73
2022/03/06 01:47:32;;;;;;;18.70;7.70;;;;;;;;;;5042515;28;20075;-73
2022/03/06 01:49:57;;;;;;;16.33;7.47;;;;;;;;;;5045313;28;20029;-73
2022/03/06 01:52:23;;;;;;;19.77;8.13;;;;;;;;;;5049236;28;20039;-73
2022/03/06 01:54:48;;;;;;;17.13;7.03;;;;;;;;;;5042753;28;20116;-73
2022/03/06 01:57:13;;;;;;;16.23;7.47;;;;;;;;;;5044965;28;20078;-73
2022/03/06 01:59:38;;;;;;;17.60;7.07;;;;;;;;;;5051850;28;20036;-73
2022/03/06 02:02:03;;;;;;;16.83;8.07;;;;;;;;;;5059067;28;20711;-73
2022/03/06 02:04:30;;;;;;;17.70;6.97;;;;;;;;;;5044652;28;20048;-73
2022/03/06 02:06:55;;;;;;;16.37;7.10;;;;;;;;;;5045386;28;20037;-73
2022/03/06 02:09:20;;;;;;;17.67;7.20;;;;;;;;;;5045448;28;20303;-73
2022/03/06 02:12:18;;;;;;;20.10;7.77;;;;;;;;;;5058893;28;20024;-73
2022/03/06 02:14:31;;;;;;;20.30;7.83;;;;;;;;;;5046169;28;20187;-73
2022/03/06 02:16:56;;;;;;;20.87;7.13;;;;;;;;;;5051114;28;20260;-71
2022/03/06 02:19:21;;;;;;;14.83;6.97;;;;;;;;;;5043681;28;20078;-71
2022/03/06 02:21:47;;;;;;;13.63;7.17;;;;;;;;;;5040415;28;20056;-71
2022/03/06 02:24:12;;;;;;;16.90;8.00;;;;;;;;;;5042879;28;20036;-71
2022/03/06 02:26:38;;;;;;;14.47;6.27;;;;;;;;;;5044386;28;20124;-71
2022/03/06 02:29:03;;;;;;;15.83;7.57;;;;;;;;;;5048880;28;20079;-71
2022/03/06 02:31:29;;;;;;;13.57;6.20;;;;;;;;;;5048493;28;20041;-71
2022/03/06 02:33:54;;;;;;;13.33;6.43;;;;;;;;;;5051154;28;20033;-71
2022/03/06 02:36:19;;;;;;;18.37;7.80;;;;;;;;;;5039555;28;20161;-71
2022/03/06 02:38:44;;;;;;;15.53;6.60;;;;;;;;;;5058071;28;20055;-71
2022/03/06 02:41:10;;;;;;;16.03;8.53;;;;;;;;;;5055345;28;20032;-71
2022/03/06 02:43:35;;;;;;;16.23;7.83;;;;;;;;;;5056662;28;20104;-71
2022/03/06 02:46:00;;;;;;;15.33;7.27;;;;;;;;;;5050755;28;20029;-71
2022/03/06 02:48:25;;;;;;;16.50;7.17;;;;;;;;;;5043784;28;20032;-71
2022/03/06 02:50:52;;;;;;;15.07;7.57;;;;;;;;;;5043311;28;20485;-71
2022/03/06 02:53:18;;;;;;;18.27;7.80;;;;;;;;;;5057952;28;20519;-71
2022/03/06 02:55:44;;;;;;;15.30;6.90;;;;;;;;;;5049594;28;20032;-71
2022/03/06 02:58:09;;;;;;;16.87;7.40;;;;;;;;;;5050208;28;20021;-71
2022/03/06 03:00:34;;;;;;;17.70;8.17;;;;;;;;;;5044038;28;20487;-71
2022/03/06 03:03:00;;;;;;;18.10;7.10;;;;;;;;;;5042383;28;20116;-71
2022/03/06 03:05:26;;;;;;;14.47;7.40;;;;;;;;;;5045707;28;20021;-71
2022/03/06 03:07:51;;;;;;;17.90;6.93;;;;;;;;;;5053752;28;20033;-71
2022/03/06 03:10:18;;;;;;;13.97;6.93;;;;;;;;;;5051607;28;20031;-71
2022/03/06 03:12:43;;;;;;;14.40;6.43;;;;;;;;;;5058061;28;20031;-71
2022/03/06 03:15:09;;;;;;;14.03;7.03;;;;;;;;;;5044653;28;20025;-71
2022/03/06 03:17:35;;;;;;;16.27;7.60;;;;;;;;;;5051482;28;20027;-71
2022/03/06 03:20:00;;;;;;;22.30;8.10;;;;;;;;;;5047431;28;20096;-71
2022/03/06 03:22:25;;;;;;;18.17;7.83;;;;;;;;;;5051494;28;20028;-71
2022/03/06 03:24:50;;;;;;;16.30;6.40;;;;;;;;;;5055143;28;20469;-71
2022/03/06 03:27:16;;;;;;;20.40;8.37;;;;;;;;;;5050436;28;20055;-71
2022/03/06 03:29:41;;;;;;;14.40;6.83;;;;;;;;;;5054509;28;20110;-71
2022/03/06 03:32:06;;;;;;;13.03;6.00;;;;;;;;;;5050814;28;20068;-71
2022/03/06 03:34:32;;;;;;;18.20;6.90;;;;;;;;;;5048177;28;20031;-71
2022/03/06 03:36:57;;;;;;;14.33;7.20;;;;;;;;;;5048667;28;20017;-71
2022/03/06 03:39:22;;;;;;;16.70;7.10;;;;;;;;;;5058615;28;20043;-71
2022/03/06 03:41:48;;;;;;;13.67;6.43;;;;;;;;;;5054315;28;20086;-71
2022/03/06 03:44:13;;;;;;;14.60;6.90;;;;;;;;;;5048786;28;20041;-71
2022/03/06 03:46:38;;;;;;;17.50;7.50;;;;;;;;;;5052208;28;20037;-71
2022/03/06 03:49:03;;;;;;;14.83;7.57;;;;;;;;;;5051471;28;20028;-71
2022/03/06 03:51:29;;;;;;;15.00;6.87;;;;;;;;;;5059738;28;20106;-71
2022/03/06 03:53:54;;;;;;;17.47;6.50;;;;;;;;;;5054435;28;20087;-71
2022/03/06 03:56:21;;;;;;;16.07;6.87;;;;;;;;;;5067189;28;20044;-71
2022/03/06 03:58:46;;;;;;;16.40;7.23;;;;;;;;;;5050000;28;20021;-71
2022/03/06 04:01:11;;;;;;;17.47;6.63;;;;;;;;;;5048580;28;20335;-71
2022/03/06 04:03:37;;;;;;;17.67;7.20;;;;;;;;;;5048402;28;20634;-71
2022/03/06 04:06:02;;;;;;;17.83;6.63;;;;;;;;;;5047866;28;20231;-71
2022/03/06 04:08:27;;;;;;;16.07;5.97;;;;;;;;;;5051096;28;20142;-71
2022/03/06 04:10:54;;;;;;;15.03;6.73;;;;;;;;;;5059173;28;20028;-71
2022/03/06 04:13:19;;;;;;;14.50;6.10;;;;;;;;;;5049612;28;20548;-71
2022/03/06 04:15:45;;;;;;;18.93;5.87;;;;;;;;;;5054538;28;20048;-71
2022/03/06 04:18:10;;;;;;;20.13;7.30;;;;;;;;;;5052485;28;20031;-71
2022/03/06 04:20:35;;;;;;;11.50;5.77;;;;;;;;;;5055739;28;20029;-71
2022/03/06 04:23:01;;;;;;;14.60;5.90;;;;;;;;;;5054195;28;20529;-71
2022/03/06 04:25:26;;;;;;;11.60;5.33;;;;;;;;;;5058251;28;20021;-71
2022/03/06 04:27:51;;;;;;;12.77;5.77;;;;;;;;;;5054577;28;20027;-71
2022/03/06 04:30:16;;;;;;;14.17;5.60;;;;;;;;;;5050460;28;20507;-71
2022/03/06 04:32:42;;;;;;;12.03;5.63;;;;;;;;;;5045838;28;20450;-71
2022/03/06 04:35:07;;;;;;;13.90;5.80;;;;;;;;;;5051071;28;20024;-71
2022/03/06 04:37:33;;;;;;;13.53;5.77;;;;;;;;;;5051048;28;20067;-71
2022/03/06 04:39:58;;;;;;;9.90;5.40;;;;;;;;;;5050763;28;20117;-71
2022/03/06 04:42:23;;;;;;;13.53;6.03;;;;;;;;;;5057297;28;20048;-71
2022/03/06 04:44:48;;;;;;;19.00;6.77;;;;;;;;;;5048153;28;20378;-72
2022/03/06 04:47:14;;;;;;;10.93;5.43;;;;;;;;;;5059641;28;20535;-72
2022/03/06 04:49:42;;;;;;;13.43;6.00;;;;;;;;;;5045748;28;20031;-72
2022/03/06 04:52:07;;;;;;;18.03;6.33;;;;;;;;;;5045671;28;20016;-72
2022/03/06 04:54:33;;;;;;;17.33;6.10;;;;;;;;;;5047458;28;20055;-72
2022/03/06 04:57:00;;;;;;;14.30;6.10;;;;;;;;;;5045927;28;20099;-72
2022/03/06 04:59:26;;;;;;;11.07;5.93;;;;;;;;;;5056693;28;20024;-72
2022/03/06 05:01:51;;;;;;;15.33;6.17;;;;;;;;;;5049100;28;20124;-72
2022/03/06 05:04:16;;;;;;;10.97;5.23;;;;;;;;;;5048350;28;20663;-72
2022/03/06 05:06:42;;;;;;;11.70;5.87;;;;;;;;;;5045163;28;20087;-72
2022/03/06 05:09:07;;;;;;;14.37;6.00;;;;;;;;;;5053800;28;20048;-72
2022/03/06 05:11:33;;;;;;;11.53;5.43;;;;;;;;;;5054377;28;20040;-71
2022/03/06 05:13:58;;;;;;;12.33;5.60;;;;;;;;;;5053082;28;20020;-71
2022/03/06 05:16:23;;;;;;;11.87;5.43;;;;;;;;;;5043241;28;20078;-72
2022/03/06 05:18:49;;;;;;;11.23;5.60;;;;;;;;;;5044032;28;20484;-71
2022/03/06 05:21:14;;;;;;;11.50;5.73;;;;;;;;;;5044995;28;20421;-71
2022/03/06 05:23:39;;;;;;;11.13;4.87;;;;;;;;;;5050338;28;20362;-71
2022/03/06 05:26:05;;;;;;;11.57;5.10;;;;;;;;;;5049895;28;20532;-71
2022/03/06 05:28:30;;;;;;;12.37;5.37;;;;;;;;;;5050017;28;20158;-71
2022/03/06 05:30:55;;;;;;;10.87;5.30;;;;;;;;;;5049472;28;20040;-71
2022/03/06 05:33:21;;;;;;;8.90;4.80;;;;;;;;;;5054926;28;20021;-71
2022/03/06 05:35:46;;;;;;;8.77;5.27;;;;;;;;;;5066142;28;20046;-71
2022/03/06 05:38:12;;;;;;;11.83;5.23;;;;;;;;;;5065383;28;20031;-71
2022/03/06 05:40:37;;;;;;;11.20;6.17;;;;;;;;;;5055906;28;20413;-71
2022/03/06 05:43:02;;;;;;;9.63;5.10;;;;;;;;;;5049021;28;20032;-71
2022/03/06 05:45:28;;;;;;;14.97;4.80;;;;;;;;;;5056523;28;20036;-71
2022/03/06 05:47:53;;;;;;;13.47;4.23;;;;;;;;;;5060980;28;20036;-71
2022/03/06 05:50:18;;;;;;;9.57;4.77;;;;;;;;;;5058113;28;20413;-71
2022/03/06 05:52:43;;;;;;;10.13;4.73;;;;;;;;;;5058790;28;20421;-71
2022/03/06 05:55:09;;;;;;;10.93;5.47;;;;;;;;;;5057031;28;20035;-71
2022/03/06 05:57:35;;;;;;;10.00;5.27;;;;;;;;;;5064203;28;20036;-71
2022/03/06 06:00:00;;;;;;;8.33;4.57;;;;;;;;;;5053473;28;20078;-71
2022/03/06 06:02:25;;;;;;;9.40;4.83;;;;;;;;;;5050896;28;20099;-72
2022/03/06 06:04:51;;;;;;;10.13;4.63;;;;;;;;;;5051322;28;20473;-72
2022/03/06 06:07:16;;;;;;;13.33;4.73;;;;;;;;;;5047697;28;20025;-72
2022/03/06 06:09:41;;;;;;;6.80;4.10;;;;;;;;;;5051659;28;20053;-72
2022/03/06 06:12:07;;;;;;;11.60;4.80;;;;;;;;;;5047981;28;20052;-72
2022/03/06 06:14:32;;;;;;;10.50;4.80;;;;;;;;;;5051598;28;20055;-72
2022/03/06 06:16:58;;;;;;;9.70;4.27;;;;;;;;;;5055278;28;20078;-72
2022/03/06 06:19:23;;;;;;;13.13;5.03;;;;;;;;;;5058671;28;20706;-72
2022/03/06 06:21:48;;;;;;;10.33;4.77;;;;;;;;;;5058574;28;20021;-72
2022/03/06 06:24:14;;;;;;;9.57;4.63;;;;;;;;;;5051615;28;20060;-72
2022/03/06 06:26:40;;;;;;;9.67;4.57;;;;;;;;;;5050435;28;20505;-72
2022/03/06 06:29:05;;;;;;;9.40;4.67;;;;;;;;;;5050994;28;20036;-72
2022/03/06 06:31:31;;;;;;;11.37;4.73;;;;;;;;;;5051436;28;20274;-72
2022/03/06 06:33:56;;;;;;;8.40;4.00;;;;;;;;;;5053573;28;20025;-72
2022/03/06 06:36:22;;;;;;;7.87;4.20;;;;;;;;;;5046888;28;20033;-72
2022/03/06 06:38:48;;;;;;;8.77;4.20;;;;;;;;;;5051338;28;20025;-72
2022/03/06 06:41:13;;;;;;;10.20;4.77;;;;;;;;;;5047523;28;20600;-72
2022/03/06 06:43:38;;;;;;;11.93;4.20;;;;;;;;;;5047209;28;20723;-72
2022/03/06 06:46:03;;;;;;;12.13;4.63;;;;;;;;;;5047128;28;20025;-72
2022/03/06 06:48:29;;;;;;;7.60;4.20;;;;;;;;;;5047471;28;20029;-72
2022/03/06 06:50:55;;;;;;;11.10;4.83;;;;;;;;;;5047579;28;20021;-72
2022/03/06 06:53:20;;;;;;;12.67;4.73;;;;;;;;;;5047813;28;20147;-72
2022/03/06 06:55:45;;;;;;;9.27;3.90;;;;;;;;;;5047378;28;20544;-72
2022/03/06 06:58:10;;;;;;;8.20;4.10;;;;;;;;;;5047262;28;20025;-72
2022/03/06 07:00:36;;;;;;;9.40;4.57;;;;;;;;;;5046822;28;20086;-72
2022/03/06 07:03:01;;;;;;;9.70;4.30;;;;;;;;;;5047357;28;20473;-72
2022/03/06 07:05:26;;;;;;;11.03;4.00;;;;;;;;;;5047477;28;20036;-72
2022/03/06 07:07:53;;;;;;;11.13;3.90;;;;;;;;;;5039008;28;20033;-72
2022/03/06 07:10:18;;;;;;;7.67;3.53;;;;;;;;;;5041644;28;20072;-72
2022/03/06 07:12:48;;;;;;;8.13;3.70;;;;;;;;;;5046907;28;20485;-72
2022/03/06 07:15:14;;;;;;;8.93;3.63;;;;;;;;;;5047041;28;20072;-72
2022/03/06 07:17:40;;;;;;;10.80;4.37;;;;;;;;;;5047227;28;20029;-72
2022/03/06 07:20:06;;;;;;;14.40;3.90;;;;;;;;;;5046844;28;20029;-72
2022/03/06 07:22:31;;;;;;;6.50;3.50;;;;;;;;;;5047908;28;20112;-72
2022/03/06 07:24:56;;;;;;;11.80;4.27;;;;;;;;;;5046089;28;20020;-72
2022/03/06 07:27:21;;;;;;;8.93;3.70;;;;;;;;;;5047468;28;20029;-72
2022/03/06 07:29:47;;;;;;;6.10;3.10;;;;;;;;;;5046357;28;20032;-72
2022/03/06 07:32:16;;;;;;;5.90;3.13;;;;;;;;;;5046847;28;20266;-72
2022/03/06 07:34:41;;;;;;;9.20;3.67;;;;;;;;;;5046556;28;20017;-72
2022/03/06 07:37:06;;;;;;;7.50;3.33;;;;;;;;;;5046952;28;20548;-72
2022/03/06 07:39:32;;;;;;;5.87;3.00;;;;;;;;;;5046944;28;20025;-72
2022/03/06 07:41:57;;;;;;;5.90;2.90;;;;;;;;;;5035163;28;20041;-72
2022/03/06 07:44:22;;;;;;;11.10;3.70;;;;;;;;;;5045420;28;20060;-72
2022/03/06 07:46:48;;;;;;;8.63;3.90;;;;;;;;;;5054469;28;20055;-72
2022/03/06 07:49:13;;;;;;;7.10;3.20;;;;;;;;;;5047215;28;20442;-72
2022/03/06 07:51:38;;;;;;;5.67;2.83;;;;;;;;;;5048198;28;20037;-71
2022/03/06 07:54:03;;;;;;;10.50;4.13;;;;;;;;;;5052941;28;20024;-72
2022/03/06 07:56:29;;;;;;;10.97;5.73;;;;;;;;;;5049079;28;20025;-72
2022/03/06 07:58:54;;;;;;;7.77;4.60;;;;;;;;;;5050813;28;20065;-72
2022/03/06 08:01:20;;;;;;;8.80;4.50;;;;;;;;;;5053927;28;20029;-72
2022/03/06 08:03:45;;;;;;;7.50;4.07;;;;;;;;;;5052508;28;20021;-72
2022/03/06 08:06:10;;;;;;;6.97;3.33;;;;;;;;;;5054492;28;20028;-72
2022/03/06 08:08:35;;;;;;;6.90;3.27;;;;;;;;;;5046486;28;20090;-72
2022/03/06 08:11:01;;;;;;;11.60;3.67;;;;;;;;;;5050969;28;20111;-72
2022/03/06 08:13:26;;;;;;;5.27;2.70;;;;;;;;;;5055720;28;20279;-72
2022/03/06 08:15:51;;;;;;;6.57;3.23;;;;;;;;;;5048224;28;20025;-72
2022/03/06 08:18:16;;;;;;;5.63;2.73;;;;;;;;;;5048822;28;20444;-73
2022/03/06 08:20:42;;;;;;;6.77;3.17;;;;;;;;;;5045359;28;20029;-72
2022/03/06 08:23:07;;;;;;;6.13;3.37;;;;;;;;;;5046661;28;20029;-72
2022/03/06 08:25:32;;;;;;;6.77;2.87;;;;;;;;;;5047133;28;20462;-72
2022/03/06 08:27:57;;;;;;;7.57;2.67;;;;;;;;;;5039438;28;20399;-72
2022/03/06 08:30:23;;;;;;;6.80;2.80;;;;;;;;;;5050391;28;20719;-72
2022/03/06 08:32:48;;;;;;;7.57;2.70;;;;;;;;;;5062458;28;20095;-72
2022/03/06 08:35:13;;;;;;;6.37;2.50;;;;;;;;;;5050935;28;20389;-72
2022/03/06 08:37:39;;;;;;;6.00;3.00;;;;;;;;;;5060518;28;20060;-72
2022/03/06 08:40:05;;;;;;;4.40;2.20;;;;;;;;;;5047336;28;20027;-72
2022/03/06 08:42:30;;;;;;;6.23;3.17;;;;;;;;;;5046567;28;20040;-72
2022/03/06 08:44:55;;;;;;;7.00;2.97;;;;;;;;;;5044395;28;20028;-72
2022/03/06 08:47:21;;;;;;;5.57;2.33;;;;;;;;;;5048662;28;20496;-72
2022/03/06 08:49:46;;;;;;;5.43;2.57;;;;;;;;;;5043811;28;20033;-72
2022/03/06 08:52:11;;;;;;;5.20;2.40;;;;;;;;;;5049988;28;20099;-74
2022/03/06 08:54:37;;;;;;;8.17;2.93;;;;;;;;;;5050698;28;20562;-72
2022/03/06 08:57:02;;;;;;;4.83;2.10;;;;;;;;;;5048388;28;20017;-72
2022/03/06 08:59:27;;;;;;;7.10;2.20;;;;;;;;;;5038460;28;20028;-72
2022/03/06 09:01:55;;;;;;;7.40;2.40;;;;;;;;;;5046047;28;20143;-72
2022/03/06 09:04:21;;;;;;;4.03;2.00;;;;;;;;;;5054021;28;20684;-72
2022/03/06 09:06:47;;;;;;;6.47;2.23;;;;;;;;;;5061736;28;20028;-73
2022/03/06 09:09:12;;;;;;;6.13;2.10;;;;;;;;;;5049262;28;20060;-72
2022/03/06 09:11:42;;;;;;;4.20;2.30;;;;;;;;;;5052006;28;20048;-72
2022/03/06 09:14:07;;;;;;;4.50;1.90;;;;;;;;;;5048051;28;20043;-73
2022/03/06 09:16:33;;;;;;;5.10;2.20;;;;;;;;;;5049079;28;20082;-72
2022/03/06 09:18:58;;;;;;;5.13;2.00;;;;;;;;;;5044109;28;20134;-72
2022/03/06 09:21:23;;;;;;;4.30;2.00;;;;;;;;;;5037339;28;20103;-73
2022/03/06 09:23:49;;;;;;;6.27;2.00;;;;;;;;;;5055190;28;20119;-73
2022/03/06 09:26:14;;;;;;;5.17;2.20;;;;;;;;;;5044925;28;20036;-72
2022/03/06 09:28:39;;;;;;;4.47;2.17;;;;;;;;;;5048172;28;20025;-72
2022/03/06 09:31:04;;;;;;;3.47;1.70;;;;;;;;;;5052393;28;20048;-72
2022/03/06 09:33:30;;;;;;;3.70;1.57;;;;;;;;;;5044709;28;20060;-72
2022/03/06 09:35:55;;;;;;;5.73;1.93;;;;;;;;;;5057901;28;20025;-72
2022/03/06 09:38:20;;;;;;;5.37;2.10;;;;;;;;;;5050054;28;20025;-72
2022/03/06 09:40:46;;;;;;;5.90;2.33;;;;;;;;;;5045609;28;20033;-72
2022/03/06 09:43:17;;;;;;;6.33;2.23;;;;;;;;;;5045627;28;20082;-72
2022/03/06 09:45:43;;;;;;;4.40;2.00;;;;;;;;;;5042849;28;20393;-73
2022/03/06 09:48:09;;;;;;;4.70;1.90;;;;;;;;;;5042619;28;20029;-72
2022/03/06 09:50:35;;;;;;;4.47;2.10;;;;;;;;;;5047848;28;20033;-73
2022/03/06 09:53:00;;;;;;;4.73;2.07;;;;;;;;;;5049734;28;20024;-73
2022/03/06 09:55:26;;;;;;;4.17;1.70;;;;;;;;;;5052773;28;20021;-73
2022/03/06 09:57:55;;;;;;;5.73;1.80;;;;;;;;;;5042403;28;20800;-73
2022/03/06 10:00:21;;;;;;;4.53;2.17;;;;;;;;;;5051052;28;20052;-73
2022/03/06 10:03:00;;;;;;;3.83;2.17;;;;;;;;;;5045423;28;20121;-73
2022/03/06 10:05:26;;;;;;;5.33;2.20;;;;;;;;;;5048644;28;20865;-73
2022/03/06 10:07:51;;;;;;;6.00;2.50;;;;;;;;;;5042731;28;20017;-73
2022/03/06 10:10:33;;;;;;;5.10;2.57;;;;;;;;;;5053960;28;20617;-73
2022/03/06 10:12:58;;;;;;;6.85;2.17;;;;;;;;;;5060471;28;20063;-73
2022/03/06 10:15:24;;;;;;;5.60;2.07;;;;;;;;;;5045727;28;20053;-73
2022/03/06 10:17:59;;;;;;;6.70;2.00;;;;;;;;;;5048414;28;20020;-73
2022/03/06 10:20:28;;;;;;;3.80;1.80;;;;;;;;;;5054475;28;20028;-73
2022/03/06 10:22:53;;;;;;;5.23;2.30;;;;;;;;;;5047479;28;20021;-73
2022/03/06 10:25:20;;;;;;;6.10;2.10;;;;;;;;;;5054989;28;20086;-73
2022/03/06 10:27:53;;;;;;;3.60;1.97;;;;;;;;;;5052093;28;20044;-73
2022/03/06 10:30:24;;;;;;;6.83;2.53;;;;;;;;;;5052044;28;20057;-73
2022/03/06 10:32:49;;;;;;;4.18;1.95;;;;;;;;;;5053489;28;20055;-73
2022/03/06 10:35:14;;;;;;;5.87;1.73;;;;;;;;;;5056537;28;20064;-72
2022/03/06 10:37:40;;;;;;;6.03;2.63;;;;;;;;;;5061128;28;20025;-73
2022/03/06 10:40:05;;;;;;;4.70;1.90;;;;;;;;;;5044703;28;20691;-72
2022/03/06 10:42:30;;;;;;;5.50;2.60;;;;;;;;;;5060249;28;20032;-73
2022/03/06 10:44:56;;;;;;;4.40;2.20;;;;;;;;;;5045350;28;20064;-73
2022/03/06 10:47:21;;;;;;;5.13;2.20;;;;;;;;;;5054620;28;20086;-73
2022/03/06 10:49:59;;;;;;;5.57;2.43;;;;;;;;;;5054645;28;20116;-73
2022/03/06 10:52:24;;;;;;;4.90;2.30;;;;;;;;;;5043346;28;20044;-73
2022/03/06 10:54:50;;;;;;;4.70;2.40;;;;;;;;;;5047553;28;20553;-73
2022/03/06 10:57:15;;;;;;;5.23;2.20;;;;;;;;;;5047511;28;20059;-73
2022/03/06 10:59:42;;;;;;;6.20;2.70;;;;;;;;;;5047321;28;20028;-73
2022/03/06 11:02:09;;;;;;;5.23;2.40;;;;;;;;;;5048713;28;20101;-73
2022/03/06 11:04:36;;;;;;;5.57;2.43;;;;;;;;;;5048154;28;20033;-73
2022/03/06 11:07:01;;;;;;;8.67;3.00;;;;;;;;;;5049156;28;20527;-73
2022/03/06 11:09:27;;;;;;;6.00;2.67;;;;;;;;;;5048297;28;20084;-73
2022/03/06 11:11:52;;;;;;;5.87;2.30;;;;;;;;;;5049066;28;20021;-73
2022/03/06 11:14:18;;;;;;;6.93;3.00;;;;;;;;;;5043632;28;20060;-73
2022/03/06 11:16:43;;;;;;;5.97;2.50;;;;;;;;;;5041747;28;20095;-73
2022/03/06 11:19:09;;;;;;;5.27;2.30;;;;;;;;;;5039226;28;20029;-72
2022/03/06 11:21:35;;;;;;;5.43;2.30;;;;;;;;;;5040449;28;20040;-73
2022/03/06 11:24:06;;;;;;;6.60;2.77;;;;;;;;;;5040654;28;20632;-73
2022/03/06 11:26:34;;;;;;;4.83;2.20;;;;;;;;;;5042167;28;20029;-72
2022/03/06 11:29:11;;;;;;;7.53;3.10;;;;;;;;;;5041934;28;20439;-72
2022/03/06 11:31:43;;;;;;;5.67;2.57;;;;;;;;;;5042141;28;20024;-73
2022/03/06 11:34:09;;;;;;;7.10;3.22;;;;;;;;;;5045018;28;20029;-73
2022/03/06 11:36:43;;;;;;;6.20;3.30;;;;;;;;;;5045403;28;20499;-73
2022/03/06 11:39:09;;;;;;;5.47;3.10;;;;;;;;;;5036162;28;20029;-73
2022/03/06 11:41:36;;;;;;;7.37;2.97;;;;;;;;;;5044068;28;20089;-73
2022/03/06 11:44:02;;;;;;;6.83;3.37;;;;;;;;;;5048976;28;20036;-73
2022/03/06 11:46:28;;;;;;;6.73;2.80;;;;;;;;;;5055940;28;20036;-72
2022/03/06 11:48:56;;;;;;;6.03;2.90;;;;;;;;;;5049107;28;20098;-72
2022/03/06 11:51:21;;;;;;;12.53;3.17;;;;;;;;;;5049865;28;20357;-72
2022/03/06 11:53:53;;;;;;;7.13;3.17;;;;;;;;;;5045960;28;20043;-72
2022/03/06 11:56:30;;;;;;;7.97;3.50;;;;;;;;;;5044188;28;20067;-72
2022/03/06 11:58:56;;;;;;;12.03;3.40;;;;;;;;;;5047763;28;20063;-72
2022/03/06 12:01:28;;;;;;;7.80;3.60;;;;;;;;;;5049349;28;20417;-72
2022/03/06 12:03:54;;;;;;;9.70;4.05;;;;;;;;;;5052264;28;20035;-73
2022/03/06 12:06:20;;;;;;;6.90;3.60;;;;;;;;;;5047978;28;20028;-73
2022/03/06 12:08:45;;;;;;;7.30;4.00;;;;;;;;;;5042729;28;20052;-73
2022/03/06 12:11:11;;;;;;;9.50;4.50;;;;;;;;;;5040808;28;20029;-73
2022/03/06 12:13:39;;;;;;;9.30;4.17;;;;;;;;;;5050389;28;20440;-73
2022/03/06 12:16:08;;;;;;;8.13;3.83;;;;;;;;;;5053059;28;20025;-73
2022/03/06 12:18:34;;;;;;;9.00;4.10;;;;;;;;;;5047438;28;20043;-73
2022/03/06 12:20:59;;;;;;;8.00;4.67;;;;;;;;;;5045719;28;20037;-72
2022/03/06 12:23:28;;;;;;;9.77;4.67;;;;;;;;;;5054757;28;20055;-72
2022/03/06 12:25:54;;;;;;;8.43;4.77;;;;;;;;;;5057295;28;20032;-72
2022/03/06 12:28:20;;;;;;;9.10;4.80;;;;;;;;;;5055450;28;20085;-72
2022/03/06 12:30:46;;;;;;;9.03;4.27;;;;;;;;;;5044277;28;20139;-72
2022/03/06 12:33:31;;;;;;;9.63;5.00;;;;;;;;;;5050429;28;20037;-72
2022/03/06 12:36:09;;;;;;;7.60;3.93;;;;;;;;;;5044587;28;20029;-72
2022/03/06 12:38:34;;;;;;;9.73;4.13;;;;;;;;;;5046855;28;20028;-73
2022/03/06 12:40:59;;;;;;;7.17;3.30;;;;;;;;;;5047722;28;20032;-73
2022/03/06 12:43:25;;;;;;;7.43;3.47;;;;;;;;;;5044893;28;20064;-73
2022/03/06 12:45:50;;;;;;;7.47;3.53;;;;;;;;;;5040532;28;20029;-72
2022/03/06 12:48:16;;;;;;;8.93;4.50;;;;;;;;;;5054445;28;20032;-72
2022/03/06 12:50:41;;;;;;;7.20;3.60;;;;;;;;;;5042463;28;20029;-73
2022/03/06 12:53:07;;;;;;;7.43;3.90;;;;;;;;;;5045714;28;20056;-72
2022/03/06 12:55:32;;;;;;;9.57;4.20;;;;;;;;;;5051582;28;20105;-72
2022/03/06 12:57:59;;;;;;;6.47;3.50;;;;;;;;;;5054317;28;20604;-73
2022/03/06 13:00:26;;;;;;;5.47;3.10;;;;;;;;;;5050558;28;20021;-70
2022/03/06 13:02:53;;;;;;;5.90;2.93;;;;;;;;;;5051762;28;20036;-71
2022/03/06 13:05:23;;;;;;;5.47;2.83;;;;;;;;;;5046127;28;20070;-70
2022/03/06 13:07:48;;;;;;;6.37;3.07;;;;;;;;;;5045389;28;20763;-70
2022/03/06 13:10:14;;;;;;;5.60;2.63;;;;;;;;;;5046899;28;20044;-70
2022/03/06 13:12:41;;;;;;;4.40;2.30;;;;;;;;;;5040431;28;20024;-70
2022/03/06 13:15:12;;;;;;;5.73;2.80;;;;;;;;;;5044083;28;20013;-72
2022/03/06 13:17:38;;;;;;;6.88;2.55;;;;;;;;;;5051491;28;20028;-71
2022/03/06 13:20:03;;;;;;;5.47;2.47;;;;;;;;;;5042176;28;20036;-70
2022/03/06 13:22:29;;;;;;;6.27;2.90;;;;;;;;;;5043734;28;20028;-71
2022/03/06 13:24:56;;;;;;;7.13;2.97;;;;;;;;;;5049405;28;20044;-71
2022/03/06 13:27:24;;;;;;;7.77;3.00;;;;;;;;;;5057880;28;20135;-71
2022/03/06 13:30:10;;;;;;;6.47;2.73;;;;;;;;;;5053519;28;20433;-70
2022/03/06 13:32:36;;;;;;;6.20;2.80;;;;;;;;;;5055072;28;20028;-70
2022/03/06 13:35:03;;;;;;;4.87;2.50;;;;;;;;;;5058772;28;20627;-70
2022/03/06 13:37:36;;;;;;;6.80;2.70;;;;;;;;;;5045107;28;20556;-69
2022/03/06 13:40:03;;;;;;;5.50;2.40;;;;;;;;;;5047987;28;20109;-71
2022/03/06 13:42:29;;;;;;;6.80;2.67;;;;;;;;;;5056300;28;20033;-71
2022/03/06 13:44:58;;;;;;;10.07;2.30;;;;;;;;;;5049657;28;20024;-71
2022/03/06 13:47:24;;;;;;;4.87;2.10;;;;;;;;;;5048658;28;20033;-71
2022/03/06 13:49:58;;;;;;;8.37;3.17;;;;;;;;;;5056092;28;20059;-70
2022/03/06 13:52:31;;;;;;;5.40;2.43;;;;;;;;;;5059103;28;20021;-70
2022/03/06 13:55:10;;;;;;;5.40;2.70;;;;;;;;;;5047179;28;20028;-70
2022/03/06 13:57:36;;;;;;;6.57;2.93;;;;;;;;;;5043437;28;20059;-70
2022/03/06 14:00:20;;;;;;;7.43;2.73;;;;;;;;;;5048516;28;20060;-71
2022/03/06 14:02:46;;;;;;;5.03;2.10;;;;;;;;;;5049715;28;20116;-70
2022/03/06 14:05:11;;;;;;;4.80;2.33;;;;;;;;;;5046085;28;20100;-71
2022/03/06 14:07:36;;;;;;;5.93;3.00;;;;;;;;;;5050206;28;20110;-71
2022/03/06 14:10:02;;;;;;;5.57;3.00;;;;;;;;;;5049957;28;20105;-71
2022/03/06 14:12:32;;;;;;;5.17;2.17;;;;;;;;;;5050586;28;20547;-70
2022/03/06 14:14:58;;;;;;;10.10;2.67;;;;;;;;;;5045460;28;20029;-71
2022/03/06 14:17:23;;;;;;;9.73;3.17;;;;;;;;;;5051939;28;20444;-70
2022/03/06 14:19:58;;;;;;;7.37;2.40;;;;;;;;;;5043165;28;20025;-70
2022/03/06 14:22:23;;;;;;;5.27;2.67;;;;;;;;;;5046597;28;20032;-70
2022/03/06 14:24:48;;;;;;;6.97;2.73;;;;;;;;;;5053588;28;20086;-70
2022/03/06 14:27:13;;;;;;;7.37;3.27;;;;;;;;;;5046850;28;20033;-70
2022/03/06 14:29:40;;;;;;;4.87;2.27;;;;;;;;;;5043629;28;20033;-70